createdAt,value
2018-11-03T00:00:21.534Z,17.00
2018-11-03T00:02:49.961Z,16.90
2018-11-03T00:05:18.379Z,16.80
2018-11-03T00:07:47.005Z,16.70
2018-11-03T00:10:15.371Z,16.70
2018-11-03T00:12:43.703Z,16.60
2018-11-03T00:15:12.042Z,16.60
2018-11-03T00:17:40.418Z,16.50
2018-11-03T00:20:08.892Z,16.50
2018-11-03T00:22:37.327Z,16.40
2018-11-03T00:25:06.988Z,16.30
2018-11-03T00:27:35.583Z,16.20
2018-11-03T00:30:04.870Z,16.20
2018-11-03T00:32:33.171Z,16.10
2018-11-03T00:35:01.500Z,16.00
2018-11-03T00:37:29.780Z,16.00
2018-11-03T00:39:58.147Z,16.00
2018-11-03T00:42:26.625Z,16.00
2018-11-03T00:44:54.912Z,16.00
2018-11-03T00:47:23.288Z,15.90
2018-11-03T00:49:51.618Z,15.90
2018-11-03T00:52:19.939Z,15.80
2018-11-03T00:54:48.290Z,15.80
2018-11-03T00:57:16.606Z,15.80
2018-11-03T00:59:44.925Z,15.80
2018-11-03T01:02:13.243Z,15.80
2018-11-03T01:04:41.629Z,15.70
2018-11-03T01:07:09.948Z,15.70
2018-11-03T01:09:38.280Z,15.70
2018-11-03T01:12:06.637Z,15.70
2018-11-03T01:14:35.320Z,15.70
2018-11-03T01:17:03.855Z,15.70
2018-11-03T01:19:32.307Z,15.70
2018-11-03T01:22:00.620Z,15.70
2018-11-03T01:24:28.912Z,15.70
2018-11-03T01:26:57.228Z,15.70
2018-11-03T01:29:25.631Z,15.60
2018-11-03T01:31:53.970Z,15.60
2018-11-03T01:34:22.417Z,15.60
2018-11-03T01:36:50.727Z,15.60
2018-11-03T01:39:19.102Z,15.60
2018-11-03T01:41:47.440Z,15.60
2018-11-03T01:44:15.822Z,15.50
2018-11-03T01:46:44.186Z,15.50
2018-11-03T01:49:12.547Z,15.40
2018-11-03T01:51:41.317Z,15.40
2018-11-03T01:54:09.835Z,15.40
2018-11-03T01:56:38.172Z,15.40
2018-11-03T01:59:06.539Z,15.40
2018-11-03T02:01:34.951Z,15.40
2018-11-03T02:04:03.477Z,15.40
2018-11-03T02:06:31.792Z,15.40
2018-11-03T02:09:00.084Z,15.30
2018-11-03T02:11:28.386Z,15.30
2018-11-03T02:13:56.695Z,15.30
2018-11-03T02:16:25.134Z,15.30
2018-11-03T02:18:53.437Z,15.30
2018-11-03T02:21:21.820Z,15.20
2018-11-03T02:23:50.124Z,15.20
2018-11-03T02:26:18.481Z,15.20
2018-11-03T02:28:47.047Z,15.20
2018-11-03T02:31:15.379Z,15.10
2018-11-03T02:33:43.811Z,15.10
2018-11-03T02:36:12.096Z,15.10
2018-11-03T02:38:40.435Z,15.10
2018-11-03T02:41:08.791Z,15.10
2018-11-03T02:43:37.122Z,15.10
2018-11-03T02:46:05.658Z,15.20
2018-11-03T02:48:33.984Z,15.20
2018-11-03T02:51:02.518Z,15.20
2018-11-03T02:53:31.067Z,15.10
2018-11-03T02:55:59.348Z,15.10
2018-11-03T02:58:27.686Z,15.00
2018-11-03T03:00:56.061Z,15.00
2018-11-03T03:03:24.372Z,15.00
2018-11-03T03:05:52.720Z,14.90
2018-11-03T03:08:21.039Z,14.90
2018-11-03T03:10:49.396Z,15.00
2018-11-03T03:13:17.795Z,15.00
2018-11-03T03:15:46.103Z,14.90
2018-11-03T03:18:14.444Z,14.90
2018-11-03T03:20:42.736Z,14.90
2018-11-03T03:23:11.085Z,14.80
2018-11-03T03:25:39.506Z,14.80
2018-11-03T03:28:07.924Z,14.70
2018-11-03T03:30:36.211Z,14.70
2018-11-03T03:33:04.556Z,14.70
2018-11-03T03:35:32.935Z,14.70
2018-11-03T03:38:01.247Z,14.70
2018-11-03T03:40:30.192Z,14.70
2018-11-03T03:42:58.679Z,14.70
2018-11-03T03:45:27.056Z,14.60
2018-11-03T03:47:55.379Z,14.50
2018-11-03T03:50:23.820Z,14.50
2018-11-03T03:52:52.299Z,14.50
2018-11-03T03:55:20.833Z,14.50
2018-11-03T03:57:49.140Z,14.50
2018-11-03T04:00:17.524Z,14.40
2018-11-03T04:02:45.884Z,14.40
2018-11-03T04:05:14.195Z,14.40
2018-11-03T04:07:42.492Z,14.30
2018-11-03T04:10:11.109Z,14.30
2018-11-03T04:12:39.681Z,14.30
2018-11-03T04:15:08.120Z,14.30
2018-11-03T04:17:36.466Z,14.30
2018-11-03T04:20:05.664Z,14.20
2018-11-03T04:22:33.961Z,14.30
2018-11-03T04:25:02.288Z,14.30
2018-11-03T04:27:30.697Z,14.30
2018-11-03T04:29:59.071Z,14.30
2018-11-03T04:32:27.496Z,14.30
2018-11-03T04:34:55.979Z,14.30
2018-11-03T04:37:24.310Z,14.20
2018-11-03T04:39:52.620Z,14.20
2018-11-03T04:42:20.904Z,14.10
2018-11-03T04:44:49.477Z,14.10
2018-11-03T04:47:17.935Z,14.10
2018-11-03T04:49:46.460Z,14.10
2018-11-03T04:52:14.936Z,14.00
2018-11-03T04:54:43.296Z,14.00
2018-11-03T04:57:11.612Z,14.00
2018-11-03T04:59:39.903Z,14.00
2018-11-03T05:02:08.270Z,14.00
2018-11-03T05:04:36.786Z,13.90
2018-11-03T05:07:05.544Z,14.00
2018-11-03T05:09:33.852Z,13.90
2018-11-03T05:12:03.165Z,13.90
2018-11-03T05:14:31.423Z,13.90
2018-11-03T05:16:59.800Z,13.90
2018-11-03T05:19:28.213Z,14.00
2018-11-03T05:21:56.768Z,14.00
2018-11-03T05:24:25.124Z,14.00
2018-11-03T05:26:53.413Z,13.90
2018-11-03T05:29:21.895Z,13.90
2018-11-03T05:31:50.224Z,13.90
2018-11-03T05:34:18.610Z,14.00
2018-11-03T05:36:46.968Z,14.00
2018-11-03T05:39:15.430Z,13.90
2018-11-03T05:41:44.014Z,13.90
2018-11-03T05:44:12.774Z,13.90
2018-11-03T05:46:41.416Z,13.90
2018-11-03T05:49:10.072Z,13.80
2018-11-03T05:51:38.692Z,13.80
2018-11-03T05:54:07.360Z,13.70
2018-11-03T05:56:35.984Z,13.70
2018-11-03T05:59:04.405Z,13.70
2018-11-03T06:01:32.704Z,13.60
2018-11-03T06:04:01.149Z,13.70
2018-11-03T06:06:29.484Z,13.70
2018-11-03T06:08:57.907Z,13.70
2018-11-03T06:11:26.224Z,13.70
2018-11-03T06:13:54.724Z,13.70
2018-11-03T06:16:23.101Z,13.70
2018-11-03T06:18:51.415Z,13.80
2018-11-03T06:21:20.005Z,14.00
2018-11-03T06:23:48.600Z,14.20
2018-11-03T06:26:16.904Z,14.50
2018-11-03T06:28:45.219Z,14.80
2018-11-03T06:31:13.543Z,15.10
2018-11-03T06:33:41.996Z,15.40
2018-11-03T06:36:10.430Z,15.60
2018-11-03T06:38:38.843Z,15.80
2018-11-03T06:41:07.175Z,16.00
2018-11-03T06:43:35.511Z,16.10
2018-11-03T06:46:03.903Z,16.30
2018-11-03T06:48:32.235Z,16.50
2018-11-03T06:51:00.583Z,16.60
2018-11-03T06:53:28.897Z,16.70
2018-11-03T06:55:57.205Z,16.80
2018-11-03T06:58:25.567Z,16.70
2018-11-03T07:00:53.873Z,16.60
2018-11-03T07:03:22.236Z,16.30
2018-11-03T07:05:50.656Z,16.10
2018-11-03T07:08:18.996Z,15.90
2018-11-03T07:10:47.331Z,15.70
2018-11-03T07:13:16.095Z,15.80
2018-11-03T07:15:44.321Z,15.90
2018-11-03T07:18:12.744Z,16.10
2018-11-03T07:20:41.305Z,16.40
2018-11-03T07:23:10.052Z,16.60
2018-11-03T07:25:38.635Z,17.00
2018-11-03T07:28:07.184Z,17.30
2018-11-03T07:30:35.518Z,17.60
2018-11-03T07:33:04.123Z,17.90
2018-11-03T07:35:32.467Z,18.30
2018-11-03T07:38:00.798Z,18.50
2018-11-03T07:40:29.084Z,18.80
2018-11-03T07:42:57.439Z,19.10
2018-11-03T07:45:25.827Z,19.40
2018-11-03T07:47:54.280Z,19.70
2018-11-03T07:50:22.563Z,20.00
2018-11-03T07:52:50.855Z,20.20
2018-11-03T07:55:19.219Z,20.50
2018-11-03T07:57:47.505Z,20.70
2018-11-03T08:00:16.092Z,21.00
2018-11-03T08:02:44.636Z,21.10
2018-11-03T08:05:13.265Z,21.30
2018-11-03T08:07:41.562Z,21.40
2018-11-03T08:10:11.348Z,21.40
2018-11-03T08:12:40.073Z,21.40
2018-11-03T08:15:09.610Z,21.40
2018-11-03T08:17:38.423Z,21.30
2018-11-03T08:20:08.377Z,21.30
2018-11-03T08:22:36.835Z,21.30
2018-11-03T08:25:05.924Z,21.20
2018-11-03T08:27:34.257Z,21.20
2018-11-03T08:30:02.563Z,21.20
2018-11-03T08:32:31.221Z,21.30
2018-11-03T08:34:59.591Z,21.30
2018-11-03T08:37:28.738Z,21.30
2018-11-03T08:39:57.324Z,21.30
2018-11-03T08:42:25.784Z,21.30
2018-11-03T08:44:54.335Z,21.40
2018-11-03T08:47:22.629Z,21.50
2018-11-03T08:49:51.097Z,21.60
2018-11-03T08:52:19.415Z,21.80
2018-11-03T08:54:47.760Z,21.90
2018-11-03T08:57:16.164Z,22.10
2018-11-03T08:59:44.653Z,22.30
2018-11-03T09:02:12.861Z,22.50
2018-11-03T09:04:41.228Z,22.70
2018-11-03T09:07:09.691Z,22.90
2018-11-03T09:09:37.945Z,23.10
2018-11-03T09:12:06.441Z,23.30
2018-11-03T09:14:34.895Z,23.50
2018-11-03T09:17:03.161Z,23.70
2018-11-03T09:19:31.504Z,23.90
2018-11-03T09:21:59.811Z,24.10
2018-11-03T09:24:28.231Z,24.30
2018-11-03T09:26:56.725Z,24.40
2018-11-03T09:29:25.024Z,24.60
2018-11-03T09:31:53.431Z,24.70
2018-11-03T09:34:21.774Z,24.80
2018-11-03T09:36:50.252Z,24.90
2018-11-03T09:39:18.688Z,24.90
2018-11-03T09:41:47.206Z,25.20
2018-11-03T09:44:15.604Z,25.40
2018-11-03T09:46:43.979Z,25.40
2018-11-03T09:49:12.308Z,25.20
2018-11-03T09:51:40.727Z,24.90
2018-11-03T09:54:09.079Z,24.50
2018-11-03T09:56:37.619Z,24.10
2018-11-03T09:59:05.868Z,23.80
2018-11-03T10:01:34.240Z,23.60
2018-11-03T10:04:02.557Z,23.40
2018-11-03T10:06:31.012Z,23.30
2018-11-03T10:08:59.339Z,23.10
2018-11-03T10:11:27.662Z,23.00
2018-11-03T10:13:55.992Z,23.00
2018-11-03T10:16:24.311Z,23.00
2018-11-03T10:18:52.722Z,22.90
2018-11-03T10:21:21.159Z,22.80
2018-11-03T10:23:49.456Z,22.80
2018-11-03T10:26:17.793Z,22.70
2018-11-03T10:28:46.295Z,22.70
2018-11-03T10:31:14.688Z,22.60
2018-11-03T10:33:43.193Z,22.50
2018-11-03T10:36:11.489Z,22.40
2018-11-03T10:38:39.988Z,22.30
2018-11-03T10:41:08.381Z,22.10
2018-11-03T10:43:36.902Z,22.00
2018-11-03T10:46:05.602Z,21.90
2018-11-03T10:48:33.956Z,21.80
2018-11-03T10:51:02.293Z,21.70
2018-11-03T10:53:30.652Z,21.70
2018-11-03T10:55:58.913Z,21.70
2018-11-03T10:58:27.276Z,21.70
2018-11-03T11:01:00.993Z,21.70
2018-11-03T11:03:34.718Z,21.70
2018-11-03T11:06:08.500Z,21.80
2018-11-03T11:08:42.209Z,22.00
2018-11-03T11:11:16.103Z,21.90
2018-11-03T11:13:45.033Z,22.00
2018-11-03T11:16:13.343Z,22.00
2018-11-03T11:18:41.724Z,22.10
2018-11-03T11:21:10.146Z,22.20
2018-11-03T11:23:38.657Z,22.40
2018-11-03T11:26:06.955Z,22.30
2018-11-03T11:28:35.272Z,22.30
2018-11-03T11:31:03.664Z,22.20
2018-11-03T11:33:32.021Z,22.20
2018-11-03T11:36:00.344Z,22.30
2018-11-03T11:38:28.749Z,22.40
2018-11-03T11:40:57.116Z,22.30
2018-11-03T11:43:25.444Z,22.40
2018-11-03T11:45:53.794Z,22.30
2018-11-03T11:48:22.163Z,22.30
2018-11-03T11:50:50.553Z,22.40
2018-11-03T11:53:18.952Z,22.50
2018-11-03T11:55:48.179Z,22.60
2018-11-03T11:58:16.534Z,22.50
2018-11-03T12:00:44.994Z,22.50
2018-11-03T12:03:13.271Z,22.50
2018-11-03T12:05:41.693Z,22.50
2018-11-03T12:08:10.108Z,22.50
2018-11-03T12:10:38.481Z,22.50
2018-11-03T12:13:07.047Z,22.60
2018-11-03T12:15:35.467Z,22.70
2018-11-03T12:18:03.845Z,22.70
2018-11-03T12:20:32.200Z,22.70
2018-11-03T12:23:00.711Z,22.70
2018-11-03T12:25:29.128Z,22.70
2018-11-03T12:27:57.399Z,22.80
2018-11-03T12:30:25.740Z,22.90
2018-11-03T12:32:54.089Z,23.10
2018-11-03T12:35:22.517Z,23.20
2018-11-03T12:37:50.826Z,23.30
2018-11-03T12:40:19.228Z,23.30
2018-11-03T12:42:47.612Z,23.20
2018-11-03T12:45:16.024Z,23.10
2018-11-03T12:47:44.409Z,23.10
2018-11-03T12:50:14.666Z,23.10
2018-11-03T12:52:43.288Z,23.10
2018-11-03T12:55:11.896Z,23.10
2018-11-03T12:57:41.006Z,23.20
2018-11-03T13:00:11.979Z,23.20
2018-11-03T13:02:41.283Z,23.00
2018-11-03T13:05:10.039Z,23.10
2018-11-03T13:07:39.459Z,23.20
2018-11-03T13:10:09.058Z,23.40
2018-11-03T13:12:38.342Z,23.40
2018-11-03T13:15:08.421Z,23.50
2018-11-03T13:17:37.356Z,23.50
2018-11-03T13:20:07.307Z,23.60
2018-11-03T13:22:35.795Z,23.70
2018-11-03T13:25:04.415Z,23.80
2018-11-03T13:27:32.765Z,23.90
2018-11-03T13:30:01.124Z,23.90
2018-11-03T13:32:29.496Z,23.70
2018-11-03T13:34:57.936Z,23.70
2018-11-03T13:37:26.172Z,23.60
2018-11-03T13:39:54.639Z,23.50
2018-11-03T13:42:22.931Z,23.50
2018-11-03T13:44:51.278Z,23.50
2018-11-03T13:47:19.729Z,23.50
2018-11-03T13:49:47.886Z,23.50
2018-11-03T13:52:16.264Z,23.60
2018-11-03T13:54:44.737Z,23.40
2018-11-03T13:57:13.109Z,23.10
2018-11-03T13:59:41.627Z,22.80
2018-11-03T14:02:09.967Z,22.50
2018-11-03T14:04:38.506Z,22.10
2018-11-03T14:07:07.033Z,21.80
2018-11-03T14:09:35.520Z,21.60
2018-11-03T14:12:03.891Z,21.20
2018-11-03T14:14:32.271Z,21.00
2018-11-03T14:17:00.783Z,20.80
2018-11-03T14:19:29.123Z,20.50
2018-11-03T14:21:57.610Z,20.20
2018-11-03T14:24:25.987Z,20.00
2018-11-03T14:26:54.399Z,19.80
2018-11-03T14:29:22.710Z,19.70
2018-11-03T14:31:51.036Z,19.50
2018-11-03T14:34:19.366Z,19.40
2018-11-03T14:36:47.700Z,19.40
2018-11-03T14:39:16.014Z,19.20
2018-11-03T14:41:44.376Z,19.00
2018-11-03T14:44:12.733Z,19.00
2018-11-03T14:46:41.357Z,18.90
2018-11-03T14:49:09.672Z,18.90
2018-11-03T14:51:38.010Z,18.80
2018-11-03T14:54:06.520Z,18.70
2018-11-03T14:56:34.915Z,18.60
2018-11-03T14:59:03.197Z,18.50
2018-11-03T15:01:31.516Z,18.40
2018-11-03T15:03:59.804Z,18.40
2018-11-03T15:06:28.462Z,18.40
2018-11-03T15:08:56.781Z,18.40
2018-11-03T15:11:25.123Z,18.30
2018-11-03T15:13:53.711Z,18.20
2018-11-03T15:16:21.928Z,18.20
2018-11-03T15:18:50.229Z,18.10
2018-11-03T15:21:19.299Z,18.10
2018-11-03T15:23:48.012Z,18.00
2018-11-03T15:26:16.374Z,18.00
2018-11-03T15:28:44.723Z,18.00
2018-11-03T15:31:13.172Z,18.00
2018-11-03T15:33:41.558Z,17.90
2018-11-03T15:36:10.205Z,17.90
2018-11-03T15:38:38.644Z,17.90
2018-11-03T15:41:07.035Z,17.80
2018-11-03T15:43:35.355Z,17.80
2018-11-03T15:46:03.643Z,17.70
2018-11-03T15:48:31.944Z,17.60
2018-11-03T15:51:00.267Z,17.60
2018-11-03T15:53:28.597Z,17.60
2018-11-03T15:55:56.887Z,17.50
2018-11-03T15:58:25.247Z,17.50
2018-11-03T16:00:53.614Z,17.50
2018-11-03T16:03:21.916Z,17.40
2018-11-03T16:05:50.244Z,17.50
2018-11-03T16:08:18.551Z,17.40
2018-11-03T16:10:46.886Z,17.30
2018-11-03T16:13:15.180Z,17.20
2018-11-03T16:15:43.451Z,17.20
2018-11-03T16:18:11.769Z,17.20
2018-11-03T16:20:40.178Z,17.10
2018-11-03T16:23:08.508Z,17.10
2018-11-03T16:25:36.920Z,17.10
2018-11-03T16:28:05.668Z,17.00
2018-11-03T16:30:33.969Z,16.90
2018-11-03T16:33:02.314Z,16.90
2018-11-03T16:35:30.645Z,16.90
2018-11-03T16:37:58.952Z,16.90
2018-11-03T16:40:27.243Z,16.80
2018-11-03T16:42:55.533Z,16.80
2018-11-03T16:45:23.848Z,16.70
2018-11-03T16:47:52.150Z,16.70
2018-11-03T16:50:20.491Z,16.60
2018-11-03T16:52:48.809Z,16.60
2018-11-03T16:55:17.227Z,16.50
2018-11-03T16:57:45.519Z,16.50
2018-11-03T17:00:14.923Z,16.40
2018-11-03T17:02:43.373Z,16.30
2018-11-03T17:05:12.934Z,16.30
2018-11-03T17:07:41.253Z,16.20
2018-11-03T17:10:11.981Z,16.10
2018-11-03T17:12:41.555Z,15.90
2018-11-03T17:15:10.087Z,15.90
2018-11-03T17:17:38.668Z,15.90
2018-11-03T17:20:07.641Z,15.90
2018-11-03T17:22:36.029Z,15.90
2018-11-03T17:25:04.688Z,15.90
2018-11-03T17:27:32.996Z,15.80
2018-11-03T17:30:01.304Z,15.80
2018-11-03T17:32:29.717Z,15.80
2018-11-03T17:34:58.043Z,15.90
2018-11-03T17:37:26.321Z,15.80
2018-11-03T17:39:54.682Z,15.80
2018-11-03T17:42:22.979Z,15.90
2018-11-03T17:44:51.321Z,15.80
2018-11-03T17:47:19.631Z,15.80
2018-11-03T17:49:47.946Z,15.70
2018-11-03T17:52:16.373Z,15.60
2018-11-03T17:54:44.846Z,15.50
2018-11-03T17:57:13.119Z,15.50
2018-11-03T17:59:41.575Z,15.40
2018-11-03T18:02:10.038Z,15.40
2018-11-03T18:04:38.458Z,15.40
2018-11-03T18:07:06.888Z,15.40
2018-11-03T18:09:35.241Z,15.40
2018-11-03T18:12:03.728Z,15.40
2018-11-03T18:14:32.086Z,15.50
2018-11-03T18:17:00.385Z,15.50
2018-11-03T18:19:28.721Z,15.50
2018-11-03T18:21:57.088Z,15.60
2018-11-03T18:24:25.598Z,15.60
2018-11-03T18:26:53.959Z,15.60
2018-11-03T18:29:22.272Z,15.60
2018-11-03T18:31:50.571Z,15.60
2018-11-03T18:34:18.922Z,15.60
2018-11-03T18:36:47.192Z,15.60
2018-11-03T18:39:15.522Z,15.60
2018-11-03T18:41:44.038Z,15.70
2018-11-03T18:44:12.260Z,15.70
2018-11-03T18:46:40.661Z,15.80
2018-11-03T18:49:08.879Z,15.80
2018-11-03T18:51:37.245Z,15.80
2018-11-03T18:54:05.835Z,15.80
2018-11-03T18:56:34.270Z,15.80
2018-11-03T18:59:02.593Z,15.80
2018-11-03T19:01:30.916Z,15.80
2018-11-03T19:03:59.311Z,15.80
2018-11-03T19:06:27.632Z,15.70
2018-11-03T19:08:55.954Z,15.60
2018-11-03T19:11:24.252Z,15.60
2018-11-03T19:13:52.537Z,15.60
2018-11-03T19:16:20.846Z,15.60
2018-11-03T19:18:49.152Z,15.60
2018-11-03T19:21:17.510Z,15.60
2018-11-03T19:23:46.213Z,15.50
2018-11-03T19:26:14.292Z,15.60
2018-11-03T19:28:42.582Z,15.50
2018-11-03T19:31:10.951Z,15.60
2018-11-03T19:33:39.467Z,15.60
2018-11-03T19:36:07.840Z,15.60
2018-11-03T19:38:36.177Z,15.50
2018-11-03T19:41:04.510Z,15.50
2018-11-03T19:43:34.077Z,15.50
2018-11-03T19:46:02.644Z,15.50
2018-11-03T19:48:30.925Z,15.50
2018-11-03T19:50:59.385Z,15.40
2018-11-03T19:53:27.665Z,15.40
2018-11-03T19:55:56.106Z,15.40
2018-11-03T19:58:24.332Z,15.40
2018-11-03T20:00:52.775Z,15.40
2018-11-03T20:03:21.188Z,15.40
2018-11-03T20:05:49.627Z,15.40
2018-11-03T20:08:18.268Z,15.30
2018-11-03T20:10:46.655Z,15.40
2018-11-03T20:13:14.978Z,15.30
2018-11-03T20:15:43.440Z,15.30
2018-11-03T20:18:11.796Z,15.30
2018-11-03T20:20:40.649Z,15.40
2018-11-03T20:23:09.000Z,15.40
2018-11-03T20:25:37.371Z,15.40
2018-11-03T20:28:05.956Z,15.40
2018-11-03T20:30:34.249Z,15.40
2018-11-03T20:33:02.605Z,15.30
2018-11-03T20:35:31.078Z,15.30
2018-11-03T20:37:59.489Z,15.30
2018-11-03T20:40:27.945Z,15.30
2018-11-03T20:42:56.548Z,15.40
2018-11-03T20:45:24.938Z,15.40
2018-11-03T20:47:53.289Z,15.50
2018-11-03T20:50:21.587Z,15.50
2018-11-03T20:52:49.894Z,15.50
2018-11-03T20:55:18.189Z,15.50
2018-11-03T20:57:46.504Z,15.40
2018-11-03T21:00:16.069Z,15.40
2018-11-03T21:02:45.299Z,15.40
2018-11-03T21:05:13.836Z,15.30
2018-11-03T21:07:43.071Z,15.30
2018-11-03T21:10:11.443Z,15.20
2018-11-03T21:12:39.878Z,15.20
2018-11-03T21:15:08.440Z,15.20
2018-11-03T21:17:36.964Z,15.20
2018-11-03T21:20:05.550Z,15.20
2018-11-03T21:22:34.002Z,15.30
2018-11-03T21:25:02.376Z,15.30
2018-11-03T21:27:30.703Z,15.30
2018-11-03T21:29:59.142Z,15.30
2018-11-03T21:32:27.508Z,15.30
2018-11-03T21:34:55.853Z,15.30
2018-11-03T21:37:24.181Z,15.30
2018-11-03T21:39:52.848Z,15.20
2018-11-03T21:42:21.183Z,15.30
2018-11-03T21:44:49.576Z,15.20
2018-11-03T21:47:17.921Z,15.20
2018-11-03T21:49:46.270Z,15.20
2018-11-03T21:52:14.563Z,15.10
2018-11-03T21:54:43.116Z,15.10
2018-11-03T21:57:11.460Z,15.10
2018-11-03T21:59:39.861Z,15.10
2018-11-03T22:02:08.208Z,15.10
2018-11-03T22:04:36.802Z,15.00
2018-11-03T22:07:05.437Z,15.00
2018-11-03T22:09:33.870Z,15.00
2018-11-03T22:12:02.232Z,15.10
2018-11-03T22:14:30.661Z,15.10
2018-11-03T22:16:59.324Z,15.10
2018-11-03T22:19:27.695Z,15.10
2018-11-03T22:21:55.995Z,15.10
2018-11-03T22:24:24.305Z,15.10
2018-11-03T22:26:52.599Z,15.10
2018-11-03T22:29:21.161Z,15.10
2018-11-03T22:31:49.572Z,15.10
2018-11-03T22:34:17.987Z,15.10
2018-11-03T22:36:46.326Z,15.10
2018-11-03T22:39:14.782Z,15.10
2018-11-03T22:41:43.087Z,15.10
2018-11-03T22:44:11.445Z,15.00
2018-11-03T22:46:39.738Z,15.00
2018-11-03T22:49:08.063Z,15.00
2018-11-03T22:51:36.471Z,15.00
2018-11-03T22:54:05.348Z,15.00
2018-11-03T22:56:33.667Z,15.00
2018-11-03T22:59:01.990Z,15.10
2018-11-03T23:01:30.400Z,15.00
2018-11-03T23:03:59.032Z,15.00
2018-11-03T23:06:27.671Z,15.00
2018-11-03T23:08:56.194Z,15.00
2018-11-03T23:11:24.603Z,15.00
2018-11-03T23:13:53.199Z,15.00
2018-11-03T23:16:21.427Z,15.00
2018-11-03T23:18:49.835Z,15.00
2018-11-03T23:21:18.132Z,14.90
2018-11-03T23:23:46.656Z,14.90
2018-11-03T23:26:15.003Z,14.90
2018-11-03T23:28:43.344Z,14.80
2018-11-03T23:31:11.806Z,14.90
2018-11-03T23:33:40.229Z,14.90
2018-11-03T23:36:08.868Z,14.90
2018-11-03T23:38:37.229Z,14.90
2018-11-03T23:41:05.606Z,15.00
2018-11-03T23:43:33.921Z,15.00
2018-11-03T23:46:02.257Z,15.10
2018-11-03T23:48:30.580Z,15.10
2018-11-03T23:50:58.895Z,15.10
2018-11-03T23:53:27.318Z,15.20
2018-11-03T23:55:55.626Z,15.10
2018-11-03T23:58:23.928Z,15.20
